Time;durP1;ratioP1;P1;durP2;ratioP2;P2;SDS_P1;SDS_P2;PMS_P1;PMS_P2;Temp;Humidity;BMP_temperature;BMP_pressure;BME280_temperature;BME280_humidity;BME280_pressure;Samples;Min_cycle;Max_cycle;Signal;HPM_P1;HPM_P2
2023/06/08 00:00:16;;;;;;;12.73;10.82;;;;;;;;;;5020708;28;20539;-79
2023/06/08 00:02:43;;;;;;;13.20;11.80;;;;;;;;;;5020462;28;20444;-80
2023/06/08 00:05:12;;;;;;;14.93;11.60;;;;;;;;;;5018856;28;20496;-79
2023/06/08 00:07:40;;;;;;;12.77;11.40;;;;;;;;;;5020719;28;20412;-79
2023/06/08 00:10:08;;;;;;;12.85;11.18;;;;;;;;;;5018203;28;20303;-78
2023/06/08 00:12:35;;;;;;;15.55;11.55;;;;;;;;;;5018764;28;20532;-79
2023/06/08 00:15:03;;;;;;;14.60;12.05;;;;;;;;;;5019698;28;20050;-79
2023/06/08 00:17:31;;;;;;;14.52;12.38;;;;;;;;;;5018602;28;20057;-79
2023/06/08 00:19:59;;;;;;;15.98;12.20;;;;;;;;;;5018426;28;20054;-79
2023/06/08 00:22:26;;;;;;;14.05;11.88;;;;;;;;;;5018798;28;20072;-78
2023/06/08 00:24:53;;;;;;;13.60;12.07;;;;;;;;;;5018452;28;20045;-80
2023/06/08 00:27:20;;;;;;;14.65;12.50;;;;;;;;;;5017656;28;20145;-79
2023/06/08 00:29:47;;;;;;;13.50;11.60;;;;;;;;;;5017667;28;20073;-79
2023/06/08 00:32:16;;;;;;;16.05;11.95;;;;;;;;;;5018085;28;20042;-80
2023/06/08 00:34:42;;;;;;;14.40;12.52;;;;;;;;;;5018455;28;20073;-79
2023/06/08 00:37:09;;;;;;;14.13;12.70;;;;;;;;;;5018304;28;20086;-80
2023/06/08 00:39:36;;;;;;;14.50;12.23;;;;;;;;;;5017446;28;20441;-79
2023/06/08 00:42:02;;;;;;;15.05;12.80;;;;;;;;;;5018239;28;20411;-80
2023/06/08 00:44:29;;;;;;;14.48;12.63;;;;;;;;;;5018342;28;20050;-79
2023/06/08 00:46:56;;;;;;;15.85;12.65;;;;;;;;;;5019014;28;20104;-79
2023/06/08 00:49:26;;;;;;;15.15;13.15;;;;;;;;;;5016944;28;20081;-77
2023/06/08 00:51:53;;;;;;;16.98;13.23;;;;;;;;;;5016715;28;20073;-78
2023/06/08 00:54:24;;;;;;;14.40;12.52;;;;;;;;;;5017496;28;20085;-78
2023/06/08 00:56:52;;;;;;;14.13;12.43;;;;;;;;;;5017758;28;20046;-78
2023/06/08 00:59:19;;;;;;;14.52;12.13;;;;;;;;;;5015807;28;20050;-77
2023/06/08 01:01:47;;;;;;;14.43;12.68;;;;;;;;;;5016033;28;20057;-77
2023/06/08 01:04:14;;;;;;;15.57;12.05;;;;;;;;;;5016123;28;20049;-77
2023/06/08 01:06:46;;;;;;;14.27;12.68;;;;;;;;;;5016855;28;20050;-78
2023/06/08 01:09:22;;;;;;;15.25;13.27;;;;;;;;;;5015809;28;20137;-79
2023/06/08 01:12:07;;;;;;;14.85;12.57;;;;;;;;;;5016957;28;20128;-78
2023/06/08 01:14:41;;;;;;;13.82;12.32;;;;;;;;;;5017577;28;20057;-79
2023/06/08 01:17:12;;;;;;;13.77;12.32;;;;;;;;;;5017243;28;20497;-80
2023/06/08 01:19:54;;;;;;;14.23;12.70;;;;;;;;;;5017049;28;20058;-79
2023/06/08 01:22:28;;;;;;;14.40;12.02;;;;;;;;;;5017178;28;20520;-79
2023/06/08 01:24:59;;;;;;;13.77;12.00;;;;;;;;;;5017657;28;20053;-79
2023/06/08 01:27:31;;;;;;;13.52;11.93;;;;;;;;;;5018009;28;20042;-79
2023/06/08 01:29:58;;;;;;;15.75;13.52;;;;;;;;;;5016901;28;20042;-80
2023/06/08 01:32:26;;;;;;;16.35;12.57;;;;;;;;;;5017517;28;20050;-80
2023/06/08 01:34:53;;;;;;;14.60;12.98;;;;;;;;;;5017535;28;20547;-79
2023/06/08 01:37:25;;;;;;;15.55;13.02;;;;;;;;;;5016859;28;20053;-78
2023/06/08 01:39:56;;;;;;;15.52;13.00;;;;;;;;;;5016392;28;20077;-79
2023/06/08 01:42:27;;;;;;;14.45;12.48;;;;;;;;;;5017001;28;20050;-78
2023/06/08 01:44:57;;;;;;;15.50;12.27;;;;;;;;;;5017077;28;20357;-80
2023/06/08 01:47:29;;;;;;;15.15;13.55;;;;;;;;;;5016878;28;20096;-80
2023/06/08 01:49:59;;;;;;;15.50;13.80;;;;;;;;;;5016258;28;20129;-80
2023/06/08 01:52:26;;;;;;;14.73;13.18;;;;;;;;;;5016796;28;20497;-79
2023/06/08 01:54:53;;;;;;;14.20;12.68;;;;;;;;;;5016250;28;20294;-79
2023/06/08 01:57:19;;;;;;;15.40;13.20;;;;;;;;;;5016667;28;20456;-79
2023/06/08 01:59:48;;;;;;;14.93;12.95;;;;;;;;;;5016435;28;20390;-79
2023/06/08 02:02:15;;;;;;;15.57;13.35;;;;;;;;;;5016334;28;20129;-80
2023/06/08 02:04:43;;;;;;;15.65;13.35;;;;;;;;;;5016496;28;20042;-80
2023/06/08 02:07:09;;;;;;;15.57;13.73;;;;;;;;;;5017519;28;20069;-80
2023/06/08 02:09:36;;;;;;;16.63;13.38;;;;;;;;;;5016221;28;20050;-78
2023/06/08 02:12:05;;;;;;;16.10;14.00;;;;;;;;;;5016234;28;20054;-79
2023/06/08 02:14:31;;;;;;;17.23;14.77;;;;;;;;;;5016941;28;20069;-78
2023/06/08 02:17:00;;;;;;;15.70;13.18;;;;;;;;;;5017158;28;20081;-79
2023/06/08 02:19:27;;;;;;;15.57;14.00;;;;;;;;;;5016403;28;20485;-79
2023/06/08 02:21:54;;;;;;;15.93;13.55;;;;;;;;;;5017256;28;20042;-79
2023/06/08 02:24:21;;;;;;;17.25;13.27;;;;;;;;;;5017656;28;20460;-78
2023/06/08 02:26:51;;;;;;;15.35;13.55;;;;;;;;;;5016167;28;20104;-79
2023/06/08 02:29:18;;;;;;;15.57;13.65;;;;;;;;;;5016211;28;20046;-79
2023/06/08 02:31:45;;;;;;;16.70;13.88;;;;;;;;;;5016447;28;20092;-78
2023/06/08 02:34:13;;;;;;;16.33;13.40;;;;;;;;;;5015360;28;20050;-78
2023/06/08 02:36:40;;;;;;;14.93;13.15;;;;;;;;;;5013569;28;20054;-77
2023/06/08 02:39:06;;;;;;;15.57;13.80;;;;;;;;;;5013326;28;20076;-78
2023/06/08 02:41:33;;;;;;;15.07;13.40;;;;;;;;;;5013946;28;20480;-77
2023/06/08 02:44:00;;;;;;;15.35;13.75;;;;;;;;;;5013950;28;20134;-78
2023/06/08 02:46:26;;;;;;;15.88;14.15;;;;;;;;;;5013409;28;20104;-79
2023/06/08 02:48:53;;;;;;;15.70;13.75;;;;;;;;;;5013624;28;20564;-78
2023/06/08 02:51:21;;;;;;;16.88;13.32;;;;;;;;;;5013868;28;20057;-77
2023/06/08 02:53:48;;;;;;;16.67;13.98;;;;;;;;;;5014060;28;20053;-77
2023/06/08 02:56:14;;;;;;;16.30;13.63;;;;;;;;;;5014229;28;20100;-78
2023/06/08 02:58:46;;;;;;;14.25;12.70;;;;;;;;;;5014372;28;20054;-78
2023/06/08 03:01:14;;;;;;;19.63;13.77;;;;;;;;;;5015531;28;20050;-77
2023/06/08 03:03:41;;;;;;;14.88;13.38;;;;;;;;;;5014128;28;20046;-77
2023/06/08 03:06:09;;;;;;;16.63;13.45;;;;;;;;;;5014295;28;20128;-77
2023/06/08 03:08:37;;;;;;;15.55;13.40;;;;;;;;;;5014038;28;20149;-78
2023/06/08 03:11:04;;;;;;;16.38;13.98;;;;;;;;;;5015748;28;20089;-78
2023/06/08 03:13:30;;;;;;;16.23;14.15;;;;;;;;;;5014029;28;20112;-76
2023/06/08 03:15:57;;;;;;;14.55;12.95;;;;;;;;;;5013730;28;20046;-78
2023/06/08 03:18:24;;;;;;;15.55;13.95;;;;;;;;;;5013901;28;20073;-78
2023/06/08 03:20:51;;;;;;;14.98;13.13;;;;;;;;;;5013559;28;20049;-77
2023/06/08 03:23:19;;;;;;;15.52;12.98;;;;;;;;;;5013627;28;20543;-78
2023/06/08 03:25:48;;;;;;;17.77;13.88;;;;;;;;;;5012853;28;20042;-78
2023/06/08 03:28:15;;;;;;;15.85;13.23;;;;;;;;;;5012833;28;20046;-78
2023/06/08 03:30:42;;;;;;;15.45;13.57;;;;;;;;;;5012644;28;20050;-77
2023/06/08 03:33:10;;;;;;;16.50;13.38;;;;;;;;;;5012876;28;20046;-77
2023/06/08 03:35:36;;;;;;;16.13;13.15;;;;;;;;;;5013615;28;20391;-77
2023/06/08 03:38:08;;;;;;;14.45;12.95;;;;;;;;;;5013417;28;20577;-79
2023/06/08 03:40:35;;;;;;;14.50;12.88;;;;;;;;;;5012815;28;20086;-77
2023/06/08 03:43:03;;;;;;;14.98;13.38;;;;;;;;;;5013048;28;20416;-77
2023/06/08 03:45:30;;;;;;;13.85;12.45;;;;;;;;;;5013322;28;20052;-77
2023/06/08 03:47:56;;;;;;;16.15;13.18;;;;;;;;;;5016618;28;20145;-76
2023/06/08 03:50:23;;;;;;;14.18;12.75;;;;;;;;;;5017040;28;20112;-78
2023/06/08 03:52:50;;;;;;;13.73;12.13;;;;;;;;;;5019170;28;20052;-77
2023/06/08 03:55:18;;;;;;;15.07;13.57;;;;;;;;;;5016778;28;20129;-77
2023/06/08 03:57:44;;;;;;;15.73;12.95;;;;;;;;;;5017460;28;20042;-77
2023/06/08 04:00:13;;;;;;;14.50;12.85;;;;;;;;;;5016994;28;20053;-78
2023/06/08 04:02:40;;;;;;;14.45;12.95;;;;;;;;;;5015641;28;20081;-78
2023/06/08 04:05:07;;;;;;;13.75;12.35;;;;;;;;;;5018357;28;20496;-77
2023/06/08 04:07:37;;;;;;;15.70;13.15;;;;;;;;;;5021694;28;20052;-77
2023/06/08 04:10:04;;;;;;;14.88;13.38;;;;;;;;;;5031828;22;20389;-78
2023/06/08 04:12:31;;;;;;;13.25;11.85;;;;;;;;;;5020536;28;20081;-78
2023/06/08 04:14:58;;;;;;;14.07;12.60;;;;;;;;;;5020736;28;20066;-78
2023/06/08 04:17:27;;;;;;;13.27;11.90;;;;;;;;;;5020580;28;20132;-78
2023/06/08 04:19:54;;;;;;;14.25;12.68;;;;;;;;;;5019943;28;20475;-78
2023/06/08 04:22:20;;;;;;;13.85;12.27;;;;;;;;;;5020080;28;20053;-79
2023/06/08 04:24:47;;;;;;;14.25;12.23;;;;;;;;;;5020282;28;20060;-78
2023/06/08 04:27:16;;;;;;;13.35;11.95;;;;;;;;;;5019579;28;20058;-78
2023/06/08 04:29:42;;;;;;;13.77;11.75;;;;;;;;;;5020501;28;20052;-78
2023/06/08 04:32:09;;;;;;;13.30;12.00;;;;;;;;;;5021515;28;20065;-77
2023/06/08 04:34:37;;;;;;;14.52;12.82;;;;;;;;;;5023651;28;20132;-77
2023/06/08 04:37:04;;;;;;;14.55;13.02;;;;;;;;;;5022793;28;20088;-78
2023/06/08 04:39:31;;;;;;;13.57;12.15;;;;;;;;;;5020680;28;20050;-78
2023/06/08 04:41:58;;;;;;;14.77;12.07;;;;;;;;;;5021012;28;20100;-78
2023/06/08 04:44:25;;;;;;;13.35;12.05;;;;;;;;;;5020175;28;20080;-78
2023/06/08 04:46:53;;;;;;;13.52;12.13;;;;;;;;;;5020513;28;20061;-78
2023/06/08 04:49:20;;;;;;;14.15;12.18;;;;;;;;;;5020421;28;20050;-78
2023/06/08 04:51:48;;;;;;;15.48;12.57;;;;;;;;;;5022276;28;20046;-78
2023/06/08 04:54:15;;;;;;;14.13;12.23;;;;;;;;;;5021145;28;20137;-78
2023/06/08 04:56:42;;;;;;;14.68;12.52;;;;;;;;;;5021186;28;20045;-78
2023/06/08 04:59:09;;;;;;;16.88;12.43;;;;;;;;;;5019224;28;20058;-78
2023/06/08 05:01:35;;;;;;;15.05;12.75;;;;;;;;;;5019650;28;20054;-78
2023/06/08 05:04:02;;;;;;;13.30;11.90;;;;;;;;;;5020002;28;20237;-78
2023/06/08 05:06:30;;;;;;;13.82;12.43;;;;;;;;;;5020339;28;20050;-78
2023/06/08 05:08:58;;;;;;;14.68;12.57;;;;;;;;;;5020995;28;20116;-78
2023/06/08 05:11:24;;;;;;;13.15;11.75;;;;;;;;;;5020361;28;20145;-79
2023/06/08 05:13:51;;;;;;;14.10;11.93;;;;;;;;;;5020423;28;20048;-78
2023/06/08 05:16:17;;;;;;;14.35;11.85;;;;;;;;;;5019311;28;20069;-78
2023/06/08 05:18:44;;;;;;;12.85;11.05;;;;;;;;;;5019478;28;20088;-78
2023/06/08 05:21:11;;;;;;;13.00;10.90;;;;;;;;;;5019319;28;20133;-78
2023/06/08 05:23:38;;;;;;;12.75;11.10;;;;;;;;;;5018988;28;20064;-79
2023/06/08 05:26:06;;;;;;;11.48;10.27;;;;;;;;;;5019056;28;20058;-78
2023/06/08 05:28:32;;;;;;;12.32;11.02;;;;;;;;;;5019239;28;20153;-78
2023/06/08 05:31:00;;;;;;;11.70;10.52;;;;;;;;;;5018946;28;20042;-78
2023/06/08 05:33:27;;;;;;;12.40;10.88;;;;;;;;;;5018875;28;20120;-78
2023/06/08 05:35:54;;;;;;;11.32;10.13;;;;;;;;;;5018506;28;20101;-78
2023/06/08 05:38:21;;;;;;;11.15;10.05;;;;;;;;;;5018767;28;20133;-79
2023/06/08 05:40:48;;;;;;;11.85;9.85;;;;;;;;;;5018905;28;20053;-78
2023/06/08 05:43:16;;;;;;;11.88;9.95;;;;;;;;;;5018290;28;20057;-78
2023/06/08 05:45:44;;;;;;;11.38;9.65;;;;;;;;;;5017832;28;20046;-78
2023/06/08 05:48:10;;;;;;;10.73;9.63;;;;;;;;;;5016795;28;20105;-77
2023/06/08 05:50:37;;;;;;;10.70;9.35;;;;;;;;;;5015100;28;20048;-80
2023/06/08 05:53:04;;;;;;;10.30;9.25;;;;;;;;;;5015202;28;20050;-77
2023/06/08 05:55:31;;;;;;;11.18;9.98;;;;;;;;;;5014607;28;20425;-78
2023/06/08 05:57:57;;;;;;;10.95;9.35;;;;;;;;;;5014744;28;20054;-78
2023/06/08 06:00:26;;;;;;;10.38;9.27;;;;;;;;;;5014648;28;20074;-78
2023/06/08 06:02:52;;;;;;;10.38;9.20;;;;;;;;;;5014222;28;20092;-77
2023/06/08 06:05:20;;;;;;;10.90;9.20;;;;;;;;;;5015332;28;20103;-78
2023/06/08 06:07:47;;;;;;;10.93;9.30;;;;;;;;;;5014841;28;20058;-77
2023/06/08 06:10:14;;;;;;;11.27;10.00;;;;;;;;;;5015461;28;20141;-80
2023/06/08 06:12:41;;;;;;;11.90;10.00;;;;;;;;;;5016863;28;20069;-79
2023/06/08 06:15:09;;;;;;;11.88;10.15;;;;;;;;;;5018209;28;20125;-78
2023/06/08 06:17:37;;;;;;;11.85;10.35;;;;;;;;;;5017741;28;20104;-79
2023/06/08 06:20:05;;;;;;;12.60;10.60;;;;;;;;;;5018279;28;20575;-79
2023/06/08 06:22:32;;;;;;;11.55;10.35;;;;;;;;;;5016830;28;20108;-80
2023/06/08 06:24:58;;;;;;;11.95;10.23;;;;;;;;;;5017680;28;20056;-79
2023/06/08 06:27:25;;;;;;;11.27;9.32;;;;;;;;;;5018443;28;20042;-80
2023/06/08 06:29:52;;;;;;;11.52;10.27;;;;;;;;;;5023542;28;20505;-80
2023/06/08 06:32:19;;;;;;;11.73;10.02;;;;;;;;;;5027932;28;20124;-79
2023/06/08 06:34:47;;;;;;;10.85;9.75;;;;;;;;;;5026276;28;20060;-78
2023/06/08 06:37:14;;;;;;;10.38;9.27;;;;;;;;;;5024888;28;20109;-77
2023/06/08 06:39:41;;;;;;;10.70;9.52;;;;;;;;;;5025362;28;20085;-78
2023/06/08 06:42:10;;;;;;;10.98;9.82;;;;;;;;;;5024134;28;20049;-79
2023/06/08 06:44:39;;;;;;;10.52;9.25;;;;;;;;;;5024969;28;20164;-79
2023/06/08 06:47:06;;;;;;;10.03;9.03;;;;;;;;;;5018846;28;20062;-80
2023/06/08 06:49:35;;;;;;;9.70;8.70;;;;;;;;;;5019495;28;20080;-80
2023/06/08 06:52:04;;;;;;;9.65;8.13;;;;;;;;;;5023749;28;20048;-78
2023/06/08 06:54:32;;;;;;;11.15;8.63;;;;;;;;;;5026868;28;20101;-80
2023/06/08 06:56:59;;;;;;;10.25;9.20;;;;;;;;;;5026332;28;20056;-78
2023/06/08 06:59:28;;;;;;;10.25;8.95;;;;;;;;;;5025448;28;20050;-79
2023/06/08 07:01:55;;;;;;;10.63;9.02;;;;;;;;;;5022873;28;20054;-80
2023/06/08 07:04:22;;;;;;;9.60;8.55;;;;;;;;;;5017344;28;20050;-80
2023/06/08 07:06:52;;;;;;;11.38;9.27;;;;;;;;;;5016592;28;20061;-81
2023/06/08 07:09:21;;;;;;;9.05;8.15;;;;;;;;;;5016621;28;20042;-80
2023/06/08 07:11:48;;;;;;;10.13;9.07;;;;;;;;;;5016429;28;20056;-81
2023/06/08 07:14:15;;;;;;;9.90;7.72;;;;;;;;;;5016640;28;20076;-79
2023/06/08 07:16:41;;;;;;;9.20;7.97;;;;;;;;;;5016794;28;20057;-80
2023/06/08 07:19:08;;;;;;;10.05;8.43;;;;;;;;;;5016440;28;20042;-79
2023/06/08 07:21:38;;;;;;;9.32;7.63;;;;;;;;;;5015653;28;20045;-80
2023/06/08 07:24:05;;;;;;;9.75;8.30;;;;;;;;;;5015919;28;20077;-79
2023/06/08 07:26:33;;;;;;;8.95;7.88;;;;;;;;;;5015766;28;20493;-80
2023/06/08 07:29:01;;;;;;;10.35;8.07;;;;;;;;;;5015477;28;20053;-80
2023/06/08 07:31:27;;;;;;;9.15;8.00;;;;;;;;;;5016466;28;20042;-80
2023/06/08 07:33:55;;;;;;;9.00;8.10;;;;;;;;;;5017722;28;20389;-78
2023/06/08 07:36:22;;;;;;;10.15;8.45;;;;;;;;;;5021916;28;20109;-77
2023/06/08 07:38:50;;;;;;;9.43;8.43;;;;;;;;;;5021334;28;20113;-77
2023/06/08 07:41:17;;;;;;;11.05;9.00;;;;;;;;;;5024562;28;20104;-79
2023/06/08 07:43:45;;;;;;;10.85;8.13;;;;;;;;;;5024428;28;20062;-77
2023/06/08 07:46:12;;;;;;;10.15;8.80;;;;;;;;;;5025318;28;20096;-77
2023/06/08 07:48:38;;;;;;;9.23;8.32;;;;;;;;;;5024993;28;20050;-77
2023/06/08 07:51:05;;;;;;;10.65;8.90;;;;;;;;;;5025219;28;20080;-79
2023/06/08 07:53:35;;;;;;;10.88;9.77;;;;;;;;;;5026455;28;20050;-78
2023/06/08 07:56:02;;;;;;;11.75;9.93;;;;;;;;;;5026498;28;20053;-79
2023/06/08 07:58:29;;;;;;;11.82;10.63;;;;;;;;;;5025310;28;20511;-79
2023/06/08 08:00:57;;;;;;;11.60;10.02;;;;;;;;;;5024042;28;20057;-80
2023/06/08 08:03:24;;;;;;;13.20;11.18;;;;;;;;;;5025298;28;20046;-79
2023/06/08 08:05:51;;;;;;;13.50;11.68;;;;;;;;;;5028083;28;20037;-80
2023/06/08 08:08:18;;;;;;;12.00;10.68;;;;;;;;;;5034586;28;20118;-76
2023/06/08 08:10:45;;;;;;;11.88;10.45;;;;;;;;;;5036484;28;20056;-79
2023/06/08 08:13:12;;;;;;;12.40;11.05;;;;;;;;;;5022895;28;20045;-80
2023/06/08 08:15:39;;;;;;;11.90;10.68;;;;;;;;;;5027336;28;20052;-80
2023/06/08 08:18:07;;;;;;;11.63;10.43;;;;;;;;;;5025942;28;20100;-79
2023/06/08 08:20:34;;;;;;;13.70;11.18;;;;;;;;;;5024202;28;20045;-80
2023/06/08 08:23:01;;;;;;;11.38;10.18;;;;;;;;;;5026405;28;20054;-79
2023/06/08 08:25:27;;;;;;;12.50;10.88;;;;;;;;;;5026358;28;20046;-80
2023/06/08 08:27:54;;;;;;;11.90;10.70;;;;;;;;;;5022598;28;20054;-80
2023/06/08 08:30:21;;;;;;;13.48;11.70;;;;;;;;;;5021920;28;20050;-79
2023/06/08 08:32:47;;;;;;;10.63;9.52;;;;;;;;;;5022999;28;20136;-79
2023/06/08 08:35:16;;;;;;;11.70;10.27;;;;;;;;;;5023854;28;20077;-80
2023/06/08 08:37:43;;;;;;;11.70;10.52;;;;;;;;;;5023633;28;20045;-80
2023/06/08 08:40:11;;;;;;;11.00;9.75;;;;;;;;;;5023233;28;20056;-81
2023/06/08 08:42:44;;;;;;;11.68;10.55;;;;;;;;;;5025812;28;20050;-78
2023/06/08 08:45:14;;;;;;;11.25;10.05;;;;;;;;;;5027267;28;20080;-79
2023/06/08 08:47:42;;;;;;;11.27;9.20;;;;;;;;;;5020419;28;20108;-80
2023/06/08 08:50:16;;;;;;;10.20;9.20;;;;;;;;;;5019045;28;20391;-80
2023/06/08 08:52:46;;;;;;;10.02;8.70;;;;;;;;;;5019826;28;20053;-80
2023/06/08 08:55:12;;;;;;;12.43;11.18;;;;;;;;;;5020095;28;20057;-80
2023/06/08 08:57:39;;;;;;;10.93;9.82;;;;;;;;;;5020565;28;20042;-80
2023/06/08 09:00:09;;;;;;;10.50;9.35;;;;;;;;;;5019664;28;20074;-81
2023/06/08 09:02:36;;;;;;;11.60;10.40;;;;;;;;;;5016355;28;20046;-79
2023/06/08 09:05:05;;;;;;;12.98;11.63;;;;;;;;;;4999076;28;20046;-80
2023/06/08 09:07:32;;;;;;;12.38;11.07;;;;;;;;;;4998360;28;20077;-80
2023/06/08 09:10:18;;;;;;;10.90;9.90;;;;;;;;;;4999133;28;20089;-78
2023/06/08 09:12:46;;;;;;;10.10;8.93;;;;;;;;;;4999792;28;20058;-78
2023/06/08 09:15:16;;;;;;;8.75;7.85;;;;;;;;;;4998962;28;20097;-78
2023/06/08 09:17:44;;;;;;;9.85;8.85;;;;;;;;;;4998487;28;20494;-78
2023/06/08 09:20:11;;;;;;;8.50;7.60;;;;;;;;;;4999153;28;20189;-78
2023/06/08 09:22:39;;;;;;;8.60;7.43;;;;;;;;;;4996982;28;20556;-77
2023/06/08 09:25:06;;;;;;;8.93;8.02;;;;;;;;;;4995072;28;20070;-78
2023/06/08 09:27:35;;;;;;;7.85;7.05;;;;;;;;;;4994984;28;20090;-79
2023/06/08 09:30:02;;;;;;;10.45;8.02;;;;;;;;;;4998454;28;20050;-78
2023/06/08 09:32:33;;;;;;;7.90;7.10;;;;;;;;;;4998215;28;20042;-78
2023/06/08 09:35:02;;;;;;;7.95;7.15;;;;;;;;;;4998947;28;20054;-78
2023/06/08 09:37:30;;;;;;;7.93;6.90;;;;;;;;;;4998003;28;20128;-78
2023/06/08 09:39:57;;;;;;;8.35;7.55;;;;;;;;;;4998161;28;20410;-77
2023/06/08 09:42:39;;;;;;;8.93;8.02;;;;;;;;;;4998808;28;20488;-77
2023/06/08 09:45:12;;;;;;;8.05;7.25;;;;;;;;;;4998209;28;20129;-78
2023/06/08 09:47:40;;;;;;;8.25;6.93;;;;;;;;;;4996863;28;20413;-77
2023/06/08 09:50:08;;;;;;;10.32;8.82;;;;;;;;;;4998046;28;20042;-78
2023/06/08 09:52:38;;;;;;;9.50;8.50;;;;;;;;;;4997918;28;20050;-78
2023/06/08 09:55:06;;;;;;;8.30;7.40;;;;;;;;;;4998858;28;20153;-78
2023/06/08 09:57:36;;;;;;;8.57;7.47;;;;;;;;;;4997902;28;20054;-78
2023/06/08 10:00:14;;;;;;;8.55;7.28;;;;;;;;;;5002763;28;20050;-77
2023/06/08 10:02:49;;;;;;;8.68;7.82;;;;;;;;;;5003949;28;20077;-77
2023/06/08 10:05:17;;;;;;;8.82;7.63;;;;;;;;;;5006551;28;20046;-77
2023/06/08 10:07:48;;;;;;;8.68;7.03;;;;;;;;;;5004442;28;20049;-77
2023/06/08 10:10:21;;;;;;;7.90;5.80;;;;;;;;;;5001464;28;20042;-77
2023/06/08 10:12:48;;;;;;;7.30;5.35;;;;;;;;;;5034475;23;20167;-79
2023/06/08 10:15:15;;;;;;;6.50;5.03;;;;;;;;;;5037486;28;20049;-79
2023/06/08 10:17:45;;;;;;;6.95;5.90;;;;;;;;;;5035793;28;20041;-78
2023/06/08 10:20:16;;;;;;;7.05;6.10;;;;;;;;;;5037983;28;20045;-79
2023/06/08 10:22:45;;;;;;;7.80;6.53;;;;;;;;;;5035753;28;20051;-78
2023/06/08 10:25:16;;;;;;;6.82;5.68;;;;;;;;;;5038238;28;20095;-79
2023/06/08 10:27:48;;;;;;;;;;;;;;;;;;5036833;28;20046;-78
2023/06/08 10:30:28;;;;;;;6.22;5.57;;;;;;;;;;5036390;28;20402;-79
2023/06/08 10:33:07;;;;;;;7.32;6.03;;;;;;;;;;5038418;28;20049;-79
2023/06/08 10:35:33;;;;;;;7.13;6.10;;;;;;;;;;5038325;28;20045;-79
2023/06/08 10:38:09;;;;;;;6.78;6.07;;;;;;;;;;5036247;28;20507;-79
2023/06/08 10:40:42;;;;;;;7.50;6.00;;;;;;;;;;5037038;28;20045;-79
2023/06/08 10:43:09;;;;;;;6.65;5.95;;;;;;;;;;5036643;28;20073;-78
2023/06/08 10:45:40;;;;;;;7.40;6.13;;;;;;;;;;5039892;28;20042;-79
2023/06/08 10:48:15;;;;;;;7.47;5.80;;;;;;;;;;5038012;28;20075;-78
2023/06/08 10:50:44;;;;;;;7.95;6.68;;;;;;;;;;5039043;28;20184;-78
2023/06/08 10:53:10;;;;;;;6.72;5.90;;;;;;;;;;5038759;28;20083;-79
2023/06/08 10:55:37;;;;;;;6.65;5.65;;;;;;;;;;5037771;28;20049;-79
2023/06/08 10:58:15;;;;;;;6.53;5.68;;;;;;;;;;5041262;28;20109;-80
2023/06/08 11:00:43;;;;;;;6.75;5.50;;;;;;;;;;5039418;28;20049;-79
2023/06/08 11:03:16;;;;;;;6.88;5.80;;;;;;;;;;5039039;28;20053;-80
2023/06/08 11:05:44;;;;;;;6.70;5.78;;;;;;;;;;5037326;28;20053;-78
2023/06/08 11:08:12;;;;;;;7.65;5.60;;;;;;;;;;5037128;28;20068;-79
2023/06/08 11:10:40;;;;;;;6.03;5.43;;;;;;;;;;5036905;28;20080;-79
2023/06/08 11:13:08;;;;;;;6.03;5.32;;;;;;;;;;5036733;28;20100;-79
2023/06/08 11:15:38;;;;;;;6.70;5.43;;;;;;;;;;5039879;28;20051;-79
2023/06/08 11:18:07;;;;;;;7.93;5.20;;;;;;;;;;5038748;28;20081;-80
2023/06/08 11:20:38;;;;;;;6.83;5.10;;;;;;;;;;5038716;28;20101;-77
2023/06/08 11:23:07;;;;;;;7.25;6.18;;;;;;;;;;5038066;28;20415;-78
2023/06/08 11:25:34;;;;;;;5.80;4.97;;;;;;;;;;5038702;28;20109;-79
2023/06/08 11:28:02;;;;;;;6.70;5.10;;;;;;;;;;5039120;28;20195;-78
2023/06/08 11:30:31;;;;;;;6.95;5.10;;;;;;;;;;5038868;28;20050;-78
2023/06/08 11:32:58;;;;;;;7.07;5.43;;;;;;;;;;5038951;28;20420;-78
2023/06/08 11:35:25;;;;;;;6.30;5.53;;;;;;;;;;5038597;28;20784;-78
2023/06/08 11:37:56;;;;;;;6.30;5.00;;;;;;;;;;5038700;28;20124;-80
2023/06/08 11:40:23;;;;;;;6.63;5.38;;;;;;;;;;5038375;28;20042;-78
2023/06/08 11:42:50;;;;;;;6.43;5.13;;;;;;;;;;5038398;28;20080;-78
2023/06/08 11:45:17;;;;;;;5.95;5.32;;;;;;;;;;5037816;28;20045;-79
2023/06/08 11:47:45;;;;;;;6.55;5.53;;;;;;;;;;5039343;28;20069;-79
2023/06/08 11:50:12;;;;;;;6.88;5.30;;;;;;;;;;5038847;28;20053;-79
2023/06/08 11:52:41;;;;;;;6.20;5.25;;;;;;;;;;5038690;28;20124;-79
2023/06/08 11:55:15;;;;;;;5.97;5.37;;;;;;;;;;5040002;28;20057;-77
2023/06/08 11:57:43;;;;;;;6.40;4.88;;;;;;;;;;5038715;28;20403;-78
2023/06/08 12:00:15;;;;;;;6.97;5.43;;;;;;;;;;5038438;28;20536;-78
2023/06/08 12:02:42;;;;;;;7.22;5.40;;;;;;;;;;5039873;28;20137;-78
2023/06/08 12:05:15;;;;;;;6.68;5.28;;;;;;;;;;5037632;28;20072;-78
2023/06/08 12:07:53;;;;;;;6.50;5.32;;;;;;;;;;5037625;28;20042;-79
2023/06/08 12:10:21;;;;;;;6.55;5.18;;;;;;;;;;5039345;28;20515;-79
2023/06/08 12:12:49;;;;;;;6.18;5.25;;;;;;;;;;5040182;28;20045;-78
2023/06/08 12:15:16;;;;;;;7.13;5.15;;;;;;;;;;5038346;28;20052;-80
2023/06/08 12:17:44;;;;;;;6.15;5.22;;;;;;;;;;5037632;28;20520;-79
2023/06/08 12:20:15;;;;;;;6.20;5.18;;;;;;;;;;5038081;28;20046;-80
2023/06/08 12:22:41;;;;;;;6.32;5.05;;;;;;;;;;5037627;28;20485;-78
2023/06/08 12:25:08;;;;;;;6.00;5.15;;;;;;;;;;5036645;28;20160;-79
2023/06/08 12:27:39;;;;;;;5.60;5.00;;;;;;;;;;5038011;28;20049;-78
2023/06/08 12:30:07;;;;;;;6.15;5.38;;;;;;;;;;5039297;28;20053;-79
2023/06/08 12:32:34;;;;;;;7.10;5.55;;;;;;;;;;5038336;28;20056;-79
2023/06/08 12:35:00;;;;;;;8.00;6.00;;;;;;;;;;5037190;28;20054;-78
2023/06/08 12:37:27;;;;;;;6.40;4.97;;;;;;;;;;5036819;28;20167;-78
2023/06/08 12:39:54;;;;;;;6.95;5.20;;;;;;;;;;5036659;28;20055;-77
2023/06/08 12:42:21;;;;;;;5.85;5.22;;;;;;;;;;5036264;28;20049;-78
2023/06/08 12:44:49;;;;;;;6.10;5.45;;;;;;;;;;5036357;28;20054;-77
2023/06/08 12:47:16;;;;;;;5.70;5.10;;;;;;;;;;5037005;28;20069;-77
2023/06/08 12:49:42;;;;;;;6.80;5.93;;;;;;;;;;5036882;28;20048;-79
2023/06/08 12:52:09;;;;;;;6.10;5.40;;;;;;;;;;5036889;28;20041;-78
2023/06/08 12:54:36;;;;;;;6.80;5.38;;;;;;;;;;5036918;28;20049;-79
2023/06/08 12:57:02;;;;;;;10.43;5.65;;;;;;;;;;5038638;28;20506;-76
2023/06/08 12:59:30;;;;;;;6.18;5.00;;;;;;;;;;5037067;28;20053;-78
2023/06/08 13:01:58;;;;;;;6.82;5.10;;;;;;;;;;5037432;28;20457;-79
2023/06/08 13:04:25;;;;;;;5.50;4.90;;;;;;;;;;5037425;28;20057;-79
2023/06/08 13:06:53;;;;;;;6.05;5.13;;;;;;;;;;5045769;28;20055;-79
2023/06/08 13:09:19;;;;;;;7.65;5.63;;;;;;;;;;5056315;28;20042;-79
2023/06/08 13:11:46;;;;;;;6.07;5.45;;;;;;;;;;5047512;28;20053;-79
2023/06/08 13:14:13;;;;;;;6.70;5.30;;;;;;;;;;5040326;28;20052;-79
2023/06/08 13:16:39;;;;;;;6.38;5.75;;;;;;;;;;5039288;28;20049;-80
2023/06/08 13:19:07;;;;;;;5.97;5.18;;;;;;;;;;5037559;28;20091;-79
2023/06/08 13:21:34;;;;;;;6.10;5.45;;;;;;;;;;5037895;28;20048;-80
2023/06/08 13:24:02;;;;;;;5.85;5.22;;;;;;;;;;5037605;28;20054;-79
2023/06/08 13:26:28;;;;;;;7.13;5.55;;;;;;;;;;5036451;28;20045;-78
2023/06/08 13:28:56;;;;;;;6.75;4.97;;;;;;;;;;5036864;28;20073;-78
2023/06/08 13:31:23;;;;;;;7.72;5.78;;;;;;;;;;5036746;28;20099;-78
2023/06/08 13:33:50;;;;;;;6.65;5.40;;;;;;;;;;5035824;28;20110;-79
2023/06/08 13:36:18;;;;;;;7.07;5.28;;;;;;;;;;5037736;28;20049;-79
2023/06/08 13:38:44;;;;;;;7.55;5.80;;;;;;;;;;5037671;28;20504;-80
2023/06/08 13:41:11;;;;;;;10.93;6.80;;;;;;;;;;5035967;28;20666;-77
2023/06/08 13:43:38;;;;;;;10.48;6.82;;;;;;;;;;5037766;28;20056;-80
2023/06/08 13:46:05;;;;;;;9.35;7.03;;;;;;;;;;5037048;28;20099;-78
2023/06/08 13:48:32;;;;;;;9.13;6.70;;;;;;;;;;5035974;28;20084;-78
2023/06/08 13:50:58;;;;;;;11.40;7.80;;;;;;;;;;5036243;28;20109;-80
2023/06/08 13:53:26;;;;;;;9.38;6.93;;;;;;;;;;5037059;28;20129;-78
2023/06/08 13:55:53;;;;;;;8.98;6.75;;;;;;;;;;5036926;28;20041;-79
2023/06/08 13:58:20;;;;;;;10.85;7.57;;;;;;;;;;5036767;28;20049;-80
2023/06/08 14:00:47;;;;;;;11.73;8.80;;;;;;;;;;5037076;28;20060;-78
2023/06/08 14:03:13;;;;;;;11.13;9.00;;;;;;;;;;5036688;28;20152;-78
2023/06/08 14:05:40;;;;;;;10.60;8.60;;;;;;;;;;5036172;28;20539;-79
2023/06/08 14:08:07;;;;;;;10.93;7.80;;;;;;;;;;5035961;28;20045;-79
2023/06/08 14:10:35;;;;;;;9.15;7.28;;;;;;;;;;5043532;28;20057;-79
2023/06/08 14:13:01;;;;;;;7.97;7.05;;;;;;;;;;5046317;28;20076;-79
2023/06/08 14:15:28;;;;;;;8.88;7.55;;;;;;;;;;5048496;28;20069;-80
2023/06/08 14:17:57;;;;;;;10.32;7.55;;;;;;;;;;5041564;28;20041;-79
2023/06/08 14:20:24;;;;;;;10.50;7.25;;;;;;;;;;5036058;28;20124;-79
2023/06/08 14:22:51;;;;;;;9.48;7.78;;;;;;;;;;5035481;28;20499;-79
2023/06/08 14:25:18;;;;;;;10.23;7.72;;;;;;;;;;5034673;28;20057;-79
2023/06/08 14:27:46;;;;;;;10.02;7.20;;;;;;;;;;5035498;28;20103;-80
2023/06/08 14:30:13;;;;;;;10.15;7.13;;;;;;;;;;5032983;28;20081;-78
2023/06/08 14:32:39;;;;;;;9.30;7.45;;;;;;;;;;5035282;28;20049;-78